Facebook Twitter

Wetterstation Schaffhausen

Messwerte
 
  Temperatur Wetter Luftdruck Wind
So, 22:00 Uhr 18.1 °C - 1019.4 hPa 0 km/h km/h
So, 21:00 Uhr 18.9 °C - 1018.7 hPa 0 km/h km/h
So, 20:00 Uhr 19.6 °C - 1018.2 hPa 0 km/h km/h
So, 19:00 Uhr 21.0 °C - 1017.7 hPa 0 km/h km/h
So, 18:00 Uhr 21.3 °C - 1017.6 hPa 0 km/h km/h
So, 17:00 Uhr 21.3 °C - 1017.8 hPa 0 km/h km/h
So, 16:00 Uhr 21.0 °C - 1018.1 hPa 0 km/h km/h
So, 15:00 Uhr 20.9 °C - 1018.3 hPa 0 km/h km/h
So, 14:00 Uhr 21.2 °C - 1018.6 hPa 0 km/h km/h
So, 13:00 Uhr 20.0 °C - 1019.4 hPa 0 km/h km/h
So, 12:00 Uhr 17.8 °C - 1020.3 hPa 0 km/h km/h
So, 11:00 Uhr 17.9 °C - 1020.2 hPa 0 km/h km/h
So, 10:00 Uhr 16.5 °C - 1020.8 hPa 0 km/h km/h
So, 09:00 Uhr 15.5 °C - 1021.3 hPa 0 km/h km/h
So, 08:00 Uhr 13.6 °C - 1021.9 hPa 0 km/h km/h
So, 07:00 Uhr 11.7 °C - 1022.3 hPa 0 km/h km/h
So, 06:00 Uhr 10.2 °C - 1022.6 hPa 0 km/h km/h
So, 05:00 Uhr 10.2 °C - 1022.7 hPa 0 km/h km/h
So, 04:00 Uhr 10.9 °C - 1022.8 hPa 0 km/h km/h
So, 03:00 Uhr 11.6 °C - 1023.1 hPa 0 km/h km/h

Alle Zeitangaben in Ortszeit (MESZ)